sensor_id;sensor_type;location;lat;lon;timestamp;P1;durP1;ratioP1;P2;durP2;ratioP2
944;SDS011;459;48.676;9.034;2023-04-15T00:01:41;5.33;;;2.70;;
944;SDS011;459;48.676;9.034;2023-04-15T00:04:06;4.30;;;2.90;;
944;SDS011;459;48.676;9.034;2023-04-15T00:06:31;6.00;;;3.50;;
944;SDS011;459;48.676;9.034;2023-04-15T00:08:57;7.03;;;2.87;;
944;SDS011;459;48.676;9.034;2023-04-15T00:11:22;6.07;;;3.10;;
944;SDS011;459;48.676;9.034;2023-04-15T00:13:48;3.37;;;2.90;;
944;SDS011;459;48.676;9.034;2023-04-15T00:16:13;4.03;;;2.93;;
944;SDS011;459;48.676;9.034;2023-04-15T00:18:38;4.67;;;3.20;;
944;SDS011;459;48.676;9.034;2023-04-15T00:21:04;7.30;;;3.30;;
944;SDS011;459;48.676;9.034;2023-04-15T00:23:29;3.80;;;3.20;;
944;SDS011;459;48.676;9.034;2023-04-15T00:25:54;4.43;;;3.13;;
944;SDS011;459;48.676;9.034;2023-04-15T00:28:20;3.97;;;2.93;;
944;SDS011;459;48.676;9.034;2023-04-15T00:30:48;6.10;;;2.70;;
944;SDS011;459;48.676;9.034;2023-04-15T00:33:13;3.40;;;2.67;;
944;SDS011;459;48.676;9.034;2023-04-15T00:35:40;6.07;;;3.60;;
944;SDS011;459;48.676;9.034;2023-04-15T00:38:06;3.67;;;2.77;;
944;SDS011;459;48.676;9.034;2023-04-15T00:40:32;5.17;;;3.03;;
944;SDS011;459;48.676;9.034;2023-04-15T00:42:57;4.33;;;3.83;;
944;SDS011;459;48.676;9.034;2023-04-15T00:45:22;4.90;;;2.83;;
944;SDS011;459;48.676;9.034;2023-04-15T00:47:48;5.60;;;3.60;;
944;SDS011;459;48.676;9.034;2023-04-15T00:50:13;3.67;;;2.50;;
944;SDS011;459;48.676;9.034;2023-04-15T00:52:38;7.87;;;3.30;;
944;SDS011;459;48.676;9.034;2023-04-15T00:55:04;5.20;;;3.27;;
944;SDS011;459;48.676;9.034;2023-04-15T00:57:29;5.47;;;3.07;;
944;SDS011;459;48.676;9.034;2023-04-15T00:59:55;4.80;;;3.40;;
944;SDS011;459;48.676;9.034;2023-04-15T01:02:20;4.80;;;3.97;;
944;SDS011;459;48.676;9.034;2023-04-15T01:04:46;5.50;;;3.67;;
944;SDS011;459;48.676;9.034;2023-04-15T01:07:11;7.50;;;4.50;;
944;SDS011;459;48.676;9.034;2023-04-15T01:09:36;5.70;;;3.40;;
944;SDS011;459;48.676;9.034;2023-04-15T01:12:02;6.13;;;4.33;;
944;SDS011;459;48.676;9.034;2023-04-15T01:14:28;4.07;;;3.10;;
944;SDS011;459;48.676;9.034;2023-04-15T01:16:53;6.27;;;4.07;;
944;SDS011;459;48.676;9.034;2023-04-15T01:19:18;4.53;;;4.13;;
944;SDS011;459;48.676;9.034;2023-04-15T01:21:44;4.80;;;3.70;;
944;SDS011;459;48.676;9.034;2023-04-15T01:24:09;4.73;;;4.10;;
944;SDS011;459;48.676;9.034;2023-04-15T01:26:38;4.00;;;3.60;;
944;SDS011;459;48.676;9.034;2023-04-15T01:29:03;5.03;;;4.53;;
944;SDS011;459;48.676;9.034;2023-04-15T01:31:28;9.70;;;4.57;;
944;SDS011;459;48.676;9.034;2023-04-15T01:33:54;5.13;;;3.73;;
944;SDS011;459;48.676;9.034;2023-04-15T01:36:19;5.63;;;3.13;;
944;SDS011;459;48.676;9.034;2023-04-15T01:38:44;5.40;;;4.40;;
944;SDS011;459;48.676;9.034;2023-04-15T01:41:09;9.20;;;6.33;;
944;SDS011;459;48.676;9.034;2023-04-15T01:43:35;6.30;;;4.63;;
944;SDS011;459;48.676;9.034;2023-04-15T01:46:01;5.83;;;4.40;;
944;SDS011;459;48.676;9.034;2023-04-15T01:48:26;4.10;;;3.70;;
944;SDS011;459;48.676;9.034;2023-04-15T01:50:53;5.13;;;4.03;;
944;SDS011;459;48.676;9.034;2023-04-15T01:53:18;8.03;;;4.90;;
944;SDS011;459;48.676;9.034;2023-04-15T01:55:43;4.63;;;4.20;;
944;SDS011;459;48.676;9.034;2023-04-15T01:58:08;7.47;;;4.60;;
944;SDS011;459;48.676;9.034;2023-04-15T02:00:34;5.57;;;4.40;;
944;SDS011;459;48.676;9.034;2023-04-15T02:02:59;5.00;;;4.07;;
944;SDS011;459;48.676;9.034;2023-04-15T02:05:24;6.87;;;4.43;;
944;SDS011;459;48.676;9.034;2023-04-15T02:07:50;6.20;;;4.80;;
944;SDS011;459;48.676;9.034;2023-04-15T02:10:15;5.03;;;4.10;;
944;SDS011;459;48.676;9.034;2023-04-15T02:12:40;5.53;;;4.93;;
944;SDS011;459;48.676;9.034;2023-04-15T02:15:06;6.17;;;3.97;;
944;SDS011;459;48.676;9.034;2023-04-15T02:17:35;6.90;;;4.73;;
944;SDS011;459;48.676;9.034;2023-04-15T02:20:00;6.30;;;4.40;;
944;SDS011;459;48.676;9.034;2023-04-15T02:22:25;7.80;;;4.77;;
944;SDS011;459;48.676;9.034;2023-04-15T02:24:50;7.33;;;4.00;;
944;SDS011;459;48.676;9.034;2023-04-15T02:27:16;4.10;;;3.70;;
944;SDS011;459;48.676;9.034;2023-04-15T02:29:42;5.20;;;3.87;;
944;SDS011;459;48.676;9.034;2023-04-15T02:32:08;7.00;;;4.87;;
944;SDS011;459;48.676;9.034;2023-04-15T02:34:33;5.20;;;4.47;;
944;SDS011;459;48.676;9.034;2023-04-15T02:36:58;5.20;;;4.20;;
944;SDS011;459;48.676;9.034;2023-04-15T02:39:23;4.47;;;4.07;;
944;SDS011;459;48.676;9.034;2023-04-15T02:41:49;5.83;;;4.13;;
944;SDS011;459;48.676;9.034;2023-04-15T02:44:16;4.97;;;4.00;;
944;SDS011;459;48.676;9.034;2023-04-15T02:46:44;8.43;;;4.53;;
944;SDS011;459;48.676;9.034;2023-04-15T02:49:12;4.60;;;4.17;;
944;SDS011;459;48.676;9.034;2023-04-15T02:51:38;5.17;;;4.67;;
944;SDS011;459;48.676;9.034;2023-04-15T02:54:03;4.30;;;3.67;;
944;SDS011;459;48.676;9.034;2023-04-15T02:56:29;4.73;;;4.10;;
944;SDS011;459;48.676;9.034;2023-04-15T02:58:54;5.20;;;4.50;;
944;SDS011;459;48.676;9.034;2023-04-15T03:01:20;6.50;;;4.50;;
944;SDS011;459;48.676;9.034;2023-04-15T03:03:45;5.97;;;4.20;;
944;SDS011;459;48.676;9.034;2023-04-15T03:06:11;6.23;;;4.90;;
944;SDS011;459;48.676;9.034;2023-04-15T03:08:36;7.53;;;4.27;;
944;SDS011;459;48.676;9.034;2023-04-15T03:11:01;9.03;;;4.10;;
944;SDS011;459;48.676;9.034;2023-04-15T03:13:26;4.90;;;3.80;;
944;SDS011;459;48.676;9.034;2023-04-15T03:15:52;7.10;;;4.50;;
944;SDS011;459;48.676;9.034;2023-04-15T03:18:17;6.90;;;4.10;;
944;SDS011;459;48.676;9.034;2023-04-15T03:20:42;6.17;;;4.77;;
944;SDS011;459;48.676;9.034;2023-04-15T03:23:07;4.77;;;3.80;;
944;SDS011;459;48.676;9.034;2023-04-15T03:25:32;7.30;;;4.40;;
944;SDS011;459;48.676;9.034;2023-04-15T03:27:58;8.60;;;4.00;;
944;SDS011;459;48.676;9.034;2023-04-15T03:30:23;7.40;;;4.70;;
944;SDS011;459;48.676;9.034;2023-04-15T03:32:49;7.80;;;4.37;;
944;SDS011;459;48.676;9.034;2023-04-15T03:35:14;6.00;;;4.30;;
944;SDS011;459;48.676;9.034;2023-04-15T03:37:39;6.10;;;4.43;;
944;SDS011;459;48.676;9.034;2023-04-15T03:40:05;5.73;;;3.53;;
944;SDS011;459;48.676;9.034;2023-04-15T03:42:31;5.80;;;3.90;;
944;SDS011;459;48.676;9.034;2023-04-15T03:44:56;4.03;;;3.57;;
944;SDS011;459;48.676;9.034;2023-04-15T03:47:21;4.67;;;4.17;;
944;SDS011;459;48.676;9.034;2023-04-15T03:49:46;4.23;;;3.80;;
944;SDS011;459;48.676;9.034;2023-04-15T03:52:11;5.10;;;4.27;;
944;SDS011;459;48.676;9.034;2023-04-15T03:54:36;4.83;;;4.20;;
944;SDS011;459;48.676;9.034;2023-04-15T03:57:02;7.07;;;3.67;;
944;SDS011;459;48.676;9.034;2023-04-15T03:59:27;4.67;;;3.70;;
944;SDS011;459;48.676;9.034;2023-04-15T04:01:52;4.07;;;3.67;;
944;SDS011;459;48.676;9.034;2023-04-15T04:04:17;7.30;;;5.10;;
944;SDS011;459;48.676;9.034;2023-04-15T04:06:42;5.27;;;4.23;;
944;SDS011;459;48.676;9.034;2023-04-15T04:09:08;6.47;;;4.60;;
944;SDS011;459;48.676;9.034;2023-04-15T04:11:33;8.27;;;4.27;;
944;SDS011;459;48.676;9.034;2023-04-15T04:13:58;8.47;;;4.57;;
944;SDS011;459;48.676;9.034;2023-04-15T04:16:23;5.30;;;4.23;;
944;SDS011;459;48.676;9.034;2023-04-15T04:18:48;4.87;;;3.87;;
944;SDS011;459;48.676;9.034;2023-04-15T04:21:13;4.80;;;3.80;;
944;SDS011;459;48.676;9.034;2023-04-15T04:23:39;5.63;;;4.53;;
944;SDS011;459;48.676;9.034;2023-04-15T04:26:04;8.00;;;5.10;;
944;SDS011;459;48.676;9.034;2023-04-15T04:28:30;5.30;;;4.80;;
944;SDS011;459;48.676;9.034;2023-04-15T04:30:55;7.00;;;4.40;;
944;SDS011;459;48.676;9.034;2023-04-15T04:33:20;7.70;;;4.33;;
944;SDS011;459;48.676;9.034;2023-04-15T04:35:45;5.43;;;3.90;;
944;SDS011;459;48.676;9.034;2023-04-15T04:38:11;8.20;;;4.03;;
944;SDS011;459;48.676;9.034;2023-04-15T04:40:36;5.77;;;4.00;;
944;SDS011;459;48.676;9.034;2023-04-15T04:43:01;5.03;;;3.97;;
944;SDS011;459;48.676;9.034;2023-04-15T04:45:26;7.30;;;4.90;;
944;SDS011;459;48.676;9.034;2023-04-15T04:47:51;5.13;;;4.60;;
944;SDS011;459;48.676;9.034;2023-04-15T04:50:17;4.70;;;4.25;;
944;SDS011;459;48.676;9.034;2023-04-15T04:52:42;5.17;;;4.67;;
944;SDS011;459;48.676;9.034;2023-04-15T04:55:07;4.60;;;4.00;;
944;SDS011;459;48.676;9.034;2023-04-15T04:57:32;5.07;;;4.20;;
944;SDS011;459;48.676;9.034;2023-04-15T04:59:59;3.90;;;3.50;;
944;SDS011;459;48.676;9.034;2023-04-15T05:02:25;5.10;;;4.53;;
944;SDS011;459;48.676;9.034;2023-04-15T05:04:51;6.80;;;4.40;;
944;SDS011;459;48.676;9.034;2023-04-15T05:07:18;5.17;;;4.63;;
944;SDS011;459;48.676;9.034;2023-04-15T05:09:44;7.10;;;4.57;;
944;SDS011;459;48.676;9.034;2023-04-15T05:12:10;4.70;;;4.27;;
944;SDS011;459;48.676;9.034;2023-04-15T05:14:38;4.60;;;4.17;;
944;SDS011;459;48.676;9.034;2023-04-15T05:17:04;6.43;;;4.93;;
944;SDS011;459;48.676;9.034;2023-04-15T05:19:29;8.13;;;5.07;;
944;SDS011;459;48.676;9.034;2023-04-15T05:21:54;5.50;;;4.70;;
944;SDS011;459;48.676;9.034;2023-04-15T05:24:20;4.50;;;4.00;;
944;SDS011;459;48.676;9.034;2023-04-15T05:26:45;6.90;;;4.27;;
944;SDS011;459;48.676;9.034;2023-04-15T05:29:11;5.70;;;4.63;;
944;SDS011;459;48.676;9.034;2023-04-15T05:31:36;5.30;;;4.00;;
944;SDS011;459;48.676;9.034;2023-04-15T05:34:01;5.47;;;4.40;;
944;SDS011;459;48.676;9.034;2023-04-15T05:36:27;6.40;;;5.53;;
944;SDS011;459;48.676;9.034;2023-04-15T05:38:52;6.40;;;4.87;;
944;SDS011;459;48.676;9.034;2023-04-15T05:41:18;4.20;;;3.90;;
944;SDS011;459;48.676;9.034;2023-04-15T05:43:43;4.83;;;4.13;;
944;SDS011;459;48.676;9.034;2023-04-15T05:46:08;6.00;;;5.50;;
944;SDS011;459;48.676;9.034;2023-04-15T05:48:33;5.10;;;4.10;;
944;SDS011;459;48.676;9.034;2023-04-15T05:50:59;6.00;;;5.13;;
944;SDS011;459;48.676;9.034;2023-04-15T05:53:24;7.20;;;5.10;;
944;SDS011;459;48.676;9.034;2023-04-15T05:55:49;6.50;;;5.13;;
944;SDS011;459;48.676;9.034;2023-04-15T05:58:15;5.50;;;4.70;;
944;SDS011;459;48.676;9.034;2023-04-15T06:00:40;9.87;;;5.20;;
944;SDS011;459;48.676;9.034;2023-04-15T06:03:06;7.60;;;5.37;;
944;SDS011;459;48.676;9.034;2023-04-15T06:05:31;5.37;;;4.27;;
944;SDS011;459;48.676;9.034;2023-04-15T06:07:57;5.23;;;4.53;;
944;SDS011;459;48.676;9.034;2023-04-15T06:10:22;6.30;;;4.50;;
944;SDS011;459;48.676;9.034;2023-04-15T06:12:47;6.87;;;6.00;;
944;SDS011;459;48.676;9.034;2023-04-15T06:15:12;7.13;;;4.80;;
944;SDS011;459;48.676;9.034;2023-04-15T06:17:38;7.57;;;4.83;;
944;SDS011;459;48.676;9.034;2023-04-15T06:20:03;6.27;;;4.60;;
944;SDS011;459;48.676;9.034;2023-04-15T06:22:28;7.63;;;5.00;;
944;SDS011;459;48.676;9.034;2023-04-15T06:24:54;6.60;;;4.70;;
944;SDS011;459;48.676;9.034;2023-04-15T06:27:19;6.70;;;4.57;;
944;SDS011;459;48.676;9.034;2023-04-15T06:29:44;5.83;;;4.70;;
944;SDS011;459;48.676;9.034;2023-04-15T06:32:10;7.60;;;4.93;;
944;SDS011;459;48.676;9.034;2023-04-15T06:34:35;10.37;;;5.70;;
944;SDS011;459;48.676;9.034;2023-04-15T06:37:01;6.10;;;5.37;;
944;SDS011;459;48.676;9.034;2023-04-15T06:39:26;7.30;;;5.87;;
944;SDS011;459;48.676;9.034;2023-04-15T06:41:51;9.37;;;5.37;;
944;SDS011;459;48.676;9.034;2023-04-15T06:44:17;5.63;;;5.13;;
944;SDS011;459;48.676;9.034;2023-04-15T06:46:43;7.23;;;5.40;;
944;SDS011;459;48.676;9.034;2023-04-15T06:49:08;6.07;;;5.10;;
944;SDS011;459;48.676;9.034;2023-04-15T06:51:33;6.50;;;5.33;;
944;SDS011;459;48.676;9.034;2023-04-15T06:54:00;5.17;;;4.37;;
944;SDS011;459;48.676;9.034;2023-04-15T06:56:26;8.03;;;4.80;;
944;SDS011;459;48.676;9.034;2023-04-15T06:58:51;5.60;;;4.40;;
944;SDS011;459;48.676;9.034;2023-04-15T07:01:16;7.93;;;4.70;;
944;SDS011;459;48.676;9.034;2023-04-15T07:03:42;8.73;;;4.90;;
944;SDS011;459;48.676;9.034;2023-04-15T07:06:07;6.07;;;4.83;;
944;SDS011;459;48.676;9.034;2023-04-15T07:08:33;5.70;;;4.30;;
944;SDS011;459;48.676;9.034;2023-04-15T07:10:59;7.17;;;4.47;;
944;SDS011;459;48.676;9.034;2023-04-15T07:13:24;5.33;;;3.90;;
944;SDS011;459;48.676;9.034;2023-04-15T07:15:49;5.10;;;4.10;;
944;SDS011;459;48.676;9.034;2023-04-15T07:18:15;4.17;;;3.77;;
944;SDS011;459;48.676;9.034;2023-04-15T07:20:40;4.37;;;3.97;;
944;SDS011;459;48.676;9.034;2023-04-15T07:23:05;5.07;;;4.57;;
944;SDS011;459;48.676;9.034;2023-04-15T07:25:31;4.30;;;3.90;;
944;SDS011;459;48.676;9.034;2023-04-15T07:27:56;4.40;;;3.43;;
944;SDS011;459;48.676;9.034;2023-04-15T07:30:21;5.57;;;4.47;;
944;SDS011;459;48.676;9.034;2023-04-15T07:32:47;4.57;;;4.17;;
944;SDS011;459;48.676;9.034;2023-04-15T07:35:12;5.40;;;3.63;;
944;SDS011;459;48.676;9.034;2023-04-15T07:37:38;5.00;;;4.13;;
944;SDS011;459;48.676;9.034;2023-04-15T07:40:03;5.30;;;3.87;;
944;SDS011;459;48.676;9.034;2023-04-15T07:42:30;5.47;;;4.10;;
944;SDS011;459;48.676;9.034;2023-04-15T07:44:55;5.30;;;3.60;;
944;SDS011;459;48.676;9.034;2023-04-15T07:47:21;5.13;;;3.30;;
944;SDS011;459;48.676;9.034;2023-04-15T07:49:46;5.43;;;3.40;;
944;SDS011;459;48.676;9.034;2023-04-15T07:52:11;5.18;;;2.85;;
944;SDS011;459;48.676;9.034;2023-04-15T07:54:36;5.18;;;3.40;;
944;SDS011;459;48.676;9.034;2023-04-15T07:57:01;7.20;;;3.63;;
944;SDS011;459;48.676;9.034;2023-04-15T07:59:27;5.77;;;3.27;;
944;SDS011;459;48.676;9.034;2023-04-15T08:01:54;3.03;;;2.57;;
944;SDS011;459;48.676;9.034;2023-04-15T08:04:19;6.10;;;3.60;;
944;SDS011;459;48.676;9.034;2023-04-15T08:06:44;4.43;;;2.50;;
944;SDS011;459;48.676;9.034;2023-04-15T08:09:09;4.07;;;3.30;;
944;SDS011;459;48.676;9.034;2023-04-15T08:11:35;5.60;;;3.40;;
944;SDS011;459;48.676;9.034;2023-04-15T08:14:00;4.53;;;3.00;;
944;SDS011;459;48.676;9.034;2023-04-15T08:16:25;3.47;;;2.73;;
944;SDS011;459;48.676;9.034;2023-04-15T08:18:54;7.30;;;3.00;;
944;SDS011;459;48.676;9.034;2023-04-15T08:21:19;4.30;;;3.37;;
944;SDS011;459;48.676;9.034;2023-04-15T08:23:45;5.97;;;3.70;;
944;SDS011;459;48.676;9.034;2023-04-15T08:26:11;5.40;;;2.77;;
944;SDS011;459;48.676;9.034;2023-04-15T08:28:37;4.60;;;3.10;;
944;SDS011;459;48.676;9.034;2023-04-15T08:31:02;5.37;;;2.50;;
944;SDS011;459;48.676;9.034;2023-04-15T08:33:27;3.73;;;3.30;;
944;SDS011;459;48.676;9.034;2023-04-15T08:35:53;5.73;;;2.57;;
944;SDS011;459;48.676;9.034;2023-04-15T08:38:18;4.60;;;2.83;;
944;SDS011;459;48.676;9.034;2023-04-15T08:40:43;3.07;;;2.50;;
944;SDS011;459;48.676;9.034;2023-04-15T08:43:10;3.80;;;2.83;;
944;SDS011;459;48.676;9.034;2023-04-15T08:45:37;3.70;;;2.27;;
944;SDS011;459;48.676;9.034;2023-04-15T08:48:03;4.10;;;2.40;;
944;SDS011;459;48.676;9.034;2023-04-15T08:50:28;2.83;;;2.50;;
944;SDS011;459;48.676;9.034;2023-04-15T08:52:56;4.13;;;2.40;;
944;SDS011;459;48.676;9.034;2023-04-15T08:55:22;5.90;;;3.20;;
944;SDS011;459;48.676;9.034;2023-04-15T08:57:48;3.77;;;2.17;;
944;SDS011;459;48.676;9.034;2023-04-15T09:00:14;2.47;;;2.00;;
944;SDS011;459;48.676;9.034;2023-04-15T09:02:40;4.00;;;2.47;;
944;SDS011;459;48.676;9.034;2023-04-15T09:05:05;2.23;;;2.00;;
944;SDS011;459;48.676;9.034;2023-04-15T09:07:34;3.03;;;2.20;;
944;SDS011;459;48.676;9.034;2023-04-15T09:10:01;3.73;;;2.30;;
944;SDS011;459;48.676;9.034;2023-04-15T09:12:27;3.87;;;1.67;;
944;SDS011;459;48.676;9.034;2023-04-15T09:14:52;4.37;;;2.50;;
944;SDS011;459;48.676;9.034;2023-04-15T09:17:18;3.87;;;2.20;;
944;SDS011;459;48.676;9.034;2023-04-15T09:19:43;3.80;;;1.80;;
944;SDS011;459;48.676;9.034;2023-04-15T09:22:08;2.73;;;1.50;;
944;SDS011;459;48.676;9.034;2023-04-15T09:24:36;3.00;;;1.30;;
944;SDS011;459;48.676;9.034;2023-04-15T09:27:02;3.67;;;2.40;;
944;SDS011;459;48.676;9.034;2023-04-15T09:29:27;8.90;;;6.23;;
944;SDS011;459;48.676;9.034;2023-04-15T09:31:52;3.40;;;2.00;;
944;SDS011;459;48.676;9.034;2023-04-15T09:34:18;2.77;;;1.90;;
944;SDS011;459;48.676;9.034;2023-04-15T09:39:12;3.10;;;2.30;;
944;SDS011;459;48.676;9.034;2023-04-15T09:41:37;3.70;;;2.00;;
944;SDS011;459;48.676;9.034;2023-04-15T09:44:03;2.50;;;1.47;;
944;SDS011;459;48.676;9.034;2023-04-15T09:46:44;2.30;;;1.97;;
944;SDS011;459;48.676;9.034;2023-04-15T09:49:10;3.67;;;1.70;;
944;SDS011;459;48.676;9.034;2023-04-15T09:51:35;2.00;;;1.37;;
944;SDS011;459;48.676;9.034;2023-04-15T09:54:01;2.93;;;1.87;;
944;SDS011;459;48.676;9.034;2023-04-15T09:56:36;3.10;;;1.73;;
944;SDS011;459;48.676;9.034;2023-04-15T09:59:02;3.33;;;2.10;;
944;SDS011;459;48.676;9.034;2023-04-15T10:01:28;4.50;;;2.70;;
944;SDS011;459;48.676;9.034;2023-04-15T10:03:54;3.43;;;1.90;;
944;SDS011;459;48.676;9.034;2023-04-15T10:06:21;2.90;;;1.80;;
944;SDS011;459;48.676;9.034;2023-04-15T10:08:47;3.60;;;1.97;;
944;SDS011;459;48.676;9.034;2023-04-15T10:11:12;3.33;;;2.20;;
944;SDS011;459;48.676;9.034;2023-04-15T10:13:38;3.07;;;2.43;;
944;SDS011;459;48.676;9.034;2023-04-15T10:16:11;3.80;;;2.27;;
944;SDS011;459;48.676;9.034;2023-04-15T10:18:41;4.70;;;1.93;;
944;SDS011;459;48.676;9.034;2023-04-15T10:21:07;4.23;;;2.00;;
944;SDS011;459;48.676;9.034;2023-04-15T10:23:32;4.20;;;2.40;;
944;SDS011;459;48.676;9.034;2023-04-15T10:25:57;1.97;;;1.70;;
944;SDS011;459;48.676;9.034;2023-04-15T10:28:23;2.40;;;1.83;;
944;SDS011;459;48.676;9.034;2023-04-15T10:30:48;2.50;;;1.93;;
944;SDS011;459;48.676;9.034;2023-04-15T10:33:14;1.87;;;1.77;;
944;SDS011;459;48.676;9.034;2023-04-15T10:35:41;3.20;;;1.50;;
944;SDS011;459;48.676;9.034;2023-04-15T10:38:30;6.40;;;2.93;;
944;SDS011;459;48.676;9.034;2023-04-15T10:40:51;2.47;;;2.07;;
944;SDS011;459;48.676;9.034;2023-04-15T10:43:25;2.40;;;2.20;;
944;SDS011;459;48.676;9.034;2023-04-15T10:45:52;2.20;;;2.00;;
944;SDS011;459;48.676;9.034;2023-04-15T10:48:17;4.07;;;1.93;;
944;SDS011;459;48.676;9.034;2023-04-15T10:50:48;4.33;;;2.60;;
944;SDS011;459;48.676;9.034;2023-04-15T10:53:25;4.90;;;2.40;;
944;SDS011;459;48.676;9.034;2023-04-15T10:55:50;4.30;;;2.80;;
944;SDS011;459;48.676;9.034;2023-04-15T10:58:16;3.50;;;2.37;;
944;SDS011;459;48.676;9.034;2023-04-15T11:00:41;2.40;;;2.17;;
944;SDS011;459;48.676;9.034;2023-04-15T11:03:13;3.10;;;2.67;;
944;SDS011;459;48.676;9.034;2023-04-15T11:05:52;3.97;;;3.07;;
944;SDS011;459;48.676;9.034;2023-04-15T11:08:17;3.20;;;2.60;;
944;SDS011;459;48.676;9.034;2023-04-15T11:15:36;5.30;;;3.33;;
944;SDS011;459;48.676;9.034;2023-04-15T11:18:09;5.10;;;3.53;;
944;SDS011;459;48.676;9.034;2023-04-15T11:20:34;4.83;;;3.80;;
944;SDS011;459;48.676;9.034;2023-04-15T11:23:00;5.20;;;3.87;;
944;SDS011;459;48.676;9.034;2023-04-15T11:25:26;6.03;;;4.20;;
944;SDS011;459;48.676;9.034;2023-04-15T11:27:52;3.70;;;3.40;;
944;SDS011;459;48.676;9.034;2023-04-15T11:30:19;6.13;;;3.70;;
944;SDS011;459;48.676;9.034;2023-04-15T11:32:45;4.30;;;3.87;;
944;SDS011;459;48.676;9.034;2023-04-15T11:35:11;3.33;;;3.03;;
944;SDS011;459;48.676;9.034;2023-04-15T11:37:36;3.53;;;2.97;;
944;SDS011;459;48.676;9.034;2023-04-15T11:40:01;3.93;;;3.10;;
944;SDS011;459;48.676;9.034;2023-04-15T11:42:27;5.33;;;2.90;;
944;SDS011;459;48.676;9.034;2023-04-15T11:45:05;4.73;;;3.67;;
944;SDS011;459;48.676;9.034;2023-04-15T11:47:30;4.30;;;3.20;;
944;SDS011;459;48.676;9.034;2023-04-15T11:49:55;2.70;;;2.50;;
944;SDS011;459;48.676;9.034;2023-04-15T11:52:20;3.30;;;2.53;;
944;SDS011;459;48.676;9.034;2023-04-15T11:54:46;4.40;;;2.70;;
944;SDS011;459;48.676;9.034;2023-04-15T11:57:12;6.00;;;2.97;;
944;SDS011;459;48.676;9.034;2023-04-15T11:59:40;6.37;;;3.40;;
944;SDS011;459;48.676;9.034;2023-04-15T12:02:12;7.13;;;2.77;;
944;SDS011;459;48.676;9.034;2023-04-15T12:04:38;4.20;;;2.70;;
944;SDS011;459;48.676;9.034;2023-04-15T12:07:03;2.60;;;2.40;;
944;SDS011;459;48.676;9.034;2023-04-15T12:09:29;4.90;;;2.30;;
944;SDS011;459;48.676;9.034;2023-04-15T12:11:56;2.93;;;2.63;;
944;SDS011;459;48.676;9.034;2023-04-15T12:14:24;4.23;;;2.80;;
944;SDS011;459;48.676;9.034;2023-04-15T12:16:51;4.73;;;3.33;;
944;SDS011;459;48.676;9.034;2023-04-15T12:22:00;4.30;;;3.40;;
944;SDS011;459;48.676;9.034;2023-04-15T12:24:25;4.07;;;3.47;;
944;SDS011;459;48.676;9.034;2023-04-15T12:26:54;4.73;;;3.80;;
944;SDS011;459;48.676;9.034;2023-04-15T12:29:24;3.80;;;3.00;;
944;SDS011;459;48.676;9.034;2023-04-15T12:31:53;6.13;;;4.13;;
944;SDS011;459;48.676;9.034;2023-04-15T12:34:26;7.00;;;4.80;;
944;SDS011;459;48.676;9.034;2023-04-15T12:36:52;5.50;;;4.13;;
944;SDS011;459;48.676;9.034;2023-04-15T12:39:17;5.20;;;4.20;;
944;SDS011;459;48.676;9.034;2023-04-15T12:41:42;3.88;;;3.50;;
944;SDS011;459;48.676;9.034;2023-04-15T12:44:07;5.80;;;4.63;;
944;SDS011;459;48.676;9.034;2023-04-15T12:46:33;5.30;;;4.20;;
944;SDS011;459;48.676;9.034;2023-04-15T12:48:58;7.50;;;4.40;;
944;SDS011;459;48.676;9.034;2023-04-15T12:51:23;4.00;;;3.60;;
944;SDS011;459;48.676;9.034;2023-04-15T12:53:50;4.10;;;3.67;;
944;SDS011;459;48.676;9.034;2023-04-15T12:56:15;4.15;;;3.85;;
944;SDS011;459;48.676;9.034;2023-04-15T12:58:41;5.10;;;3.60;;
944;SDS011;459;48.676;9.034;2023-04-15T13:01:06;4.73;;;4.23;;
944;SDS011;459;48.676;9.034;2023-04-15T13:03:31;4.10;;;3.70;;
944;SDS011;459;48.676;9.034;2023-04-15T13:05:56;6.50;;;6.00;;
944;SDS011;459;48.676;9.034;2023-04-15T13:08:21;4.50;;;4.10;;
944;SDS011;459;48.676;9.034;2023-04-15T13:10:47;6.90;;;3.63;;
944;SDS011;459;48.676;9.034;2023-04-15T13:13:12;4.20;;;3.70;;
944;SDS011;459;48.676;9.034;2023-04-15T13:15:37;3.47;;;3.17;;
944;SDS011;459;48.676;9.034;2023-04-15T13:18:03;3.73;;;3.43;;
944;SDS011;459;48.676;9.034;2023-04-15T13:20:29;4.80;;;3.80;;
944;SDS011;459;48.676;9.034;2023-04-15T13:22:54;8.50;;;3.77;;
944;SDS011;459;48.676;9.034;2023-04-15T13:25:19;6.67;;;3.53;;
944;SDS011;459;48.676;9.034;2023-04-15T13:27:45;3.90;;;3.30;;
944;SDS011;459;48.676;9.034;2023-04-15T13:30:10;5.17;;;4.00;;
944;SDS011;459;48.676;9.034;2023-04-15T13:32:35;6.83;;;4.10;;
944;SDS011;459;48.676;9.034;2023-04-15T13:35:01;6.37;;;3.67;;
944;SDS011;459;48.676;9.034;2023-04-15T13:37:26;5.53;;;3.70;;
944;SDS011;459;48.676;9.034;2023-04-15T13:39:52;3.60;;;3.30;;
944;SDS011;459;48.676;9.034;2023-04-15T13:42:17;5.10;;;3.50;;
944;SDS011;459;48.676;9.034;2023-04-15T13:44:42;6.50;;;4.97;;
944;SDS011;459;48.676;9.034;2023-04-15T13:47:07;5.68;;;3.92;;
944;SDS011;459;48.676;9.034;2023-04-15T13:49:33;4.33;;;3.30;;
944;SDS011;459;48.676;9.034;2023-04-15T13:51:58;4.30;;;3.90;;
944;SDS011;459;48.676;9.034;2023-04-15T13:54:23;5.40;;;4.27;;
944;SDS011;459;48.676;9.034;2023-04-15T13:56:48;8.80;;;4.30;;
944;SDS011;459;48.676;9.034;2023-04-15T13:59:13;4.40;;;3.77;;
944;SDS011;459;48.676;9.034;2023-04-15T14:01:38;4.30;;;3.90;;
944;SDS011;459;48.676;9.034;2023-04-15T14:04:05;4.90;;;3.70;;
944;SDS011;459;48.676;9.034;2023-04-15T14:06:30;9.10;;;4.30;;
944;SDS011;459;48.676;9.034;2023-04-15T14:08:56;3.93;;;3.60;;
944;SDS011;459;48.676;9.034;2023-04-15T14:11:21;4.83;;;4.20;;
944;SDS011;459;48.676;9.034;2023-04-15T14:13:46;4.00;;;3.60;;
944;SDS011;459;48.676;9.034;2023-04-15T14:16:11;2.97;;;2.67;;
944;SDS011;459;48.676;9.034;2023-04-15T14:18:36;4.63;;;2.93;;
944;SDS011;459;48.676;9.034;2023-04-15T14:21:02;3.63;;;3.20;;
944;SDS011;459;48.676;9.034;2023-04-15T14:23:27;2.20;;;1.87;;
944;SDS011;459;48.676;9.034;2023-04-15T14:25:52;3.00;;;2.37;;
944;SDS011;459;48.676;9.034;2023-04-15T14:28:18;2.60;;;1.40;;
944;SDS011;459;48.676;9.034;2023-04-15T14:30:43;3.37;;;1.43;;
944;SDS011;459;48.676;9.034;2023-04-15T14:33:08;1.23;;;1.00;;
944;SDS011;459;48.676;9.034;2023-04-15T14:35:33;2.70;;;1.80;;
944;SDS011;459;48.676;9.034;2023-04-15T14:37:58;2.87;;;1.77;;
944;SDS011;459;48.676;9.034;2023-04-15T14:40:23;3.13;;;2.70;;
944;SDS011;459;48.676;9.034;2023-04-15T14:42:49;2.27;;;1.70;;
944;SDS011;459;48.676;9.034;2023-04-15T14:45:14;2.30;;;2.10;;
944;SDS011;459;48.676;9.034;2023-04-15T14:47:39;3.77;;;2.17;;
944;SDS011;459;48.676;9.034;2023-04-15T14:50:05;3.27;;;2.93;;
944;SDS011;459;48.676;9.034;2023-04-15T14:52:30;3.37;;;3.07;;
944;SDS011;459;48.676;9.034;2023-04-15T14:55:06;3.67;;;3.37;;
944;SDS011;459;48.676;9.034;2023-04-15T14:57:31;3.60;;;2.90;;
944;SDS011;459;48.676;9.034;2023-04-15T14:59:56;2.40;;;1.93;;
944;SDS011;459;48.676;9.034;2023-04-15T15:02:23;4.70;;;3.23;;
944;SDS011;459;48.676;9.034;2023-04-15T15:04:48;4.43;;;2.63;;
944;SDS011;459;48.676;9.034;2023-04-15T15:07:13;4.80;;;3.27;;
944;SDS011;459;48.676;9.034;2023-04-15T15:09:38;3.60;;;3.10;;
944;SDS011;459;48.676;9.034;2023-04-15T15:12:03;4.90;;;3.30;;
944;SDS011;459;48.676;9.034;2023-04-15T15:14:29;3.50;;;2.93;;
944;SDS011;459;48.676;9.034;2023-04-15T15:16:54;4.07;;;3.30;;
944;SDS011;459;48.676;9.034;2023-04-15T15:19:19;4.33;;;3.90;;
944;SDS011;459;48.676;9.034;2023-04-15T15:21:44;6.37;;;4.17;;
944;SDS011;459;48.676;9.034;2023-04-15T15:24:09;3.53;;;3.23;;
944;SDS011;459;48.676;9.034;2023-04-15T15:26:35;4.17;;;3.20;;
944;SDS011;459;48.676;9.034;2023-04-15T15:29:00;3.50;;;3.13;;
944;SDS011;459;48.676;9.034;2023-04-15T15:31:25;4.63;;;2.83;;
944;SDS011;459;48.676;9.034;2023-04-15T15:33:51;5.03;;;3.53;;
944;SDS011;459;48.676;9.034;2023-04-15T15:36:16;4.17;;;3.77;;
944;SDS011;459;48.676;9.034;2023-04-15T15:38:42;4.67;;;3.57;;
944;SDS011;459;48.676;9.034;2023-04-15T15:41:07;4.43;;;3.30;;
944;SDS011;459;48.676;9.034;2023-04-15T15:43:32;5.57;;;4.03;;
944;SDS011;459;48.676;9.034;2023-04-15T15:45:57;5.67;;;3.60;;